Time;durP1;ratioP1;P1;durP2;ratioP2;P2;SDS_P1;SDS_P2;PMS_P1;PMS_P2;Temp;Humidity;BMP_temperature;BMP_pressure;BME280_temperature;BME280_humidity;BME280_pressure;Samples;Min_cycle;Max_cycle;Signal;HPM_P1;HPM_P2
2022/12/15 00:41:04;;;;;;;37.28;24.23;;;;;;;;;;5038562;28;20385;-66
2022/12/15 00:43:31;;;;;;;34.17;23.10;;;;;;;;;;5038289;28;20218;-66
2022/12/15 00:48:41;;;;;;;37.42;25.00;;;;;;;;;;5038417;28;20224;-66
2022/12/15 00:51:08;;;;;;;39.40;26.33;;;;;;;;;;5038539;28;20197;-66
2022/12/15 01:20:56;;;;;;;39.20;25.50;;;;;;;;;;5041467;28;20254;-66
2022/12/15 01:23:24;;;;;;;40.55;26.48;;;;;;;;;;5041241;28;20221;-66
2022/12/15 01:25:51;;;;;;;41.33;26.85;;;;;;;;;;5041417;28;20206;-66
2022/12/15 01:28:18;;;;;;;40.53;26.42;;;;;;;;;;5041119;28;20217;-67
2022/12/15 01:30:44;;;;;;;41.38;26.60;;;;;;;;;;5041190;28;20198;-66
2022/12/15 01:33:11;;;;;;;41.78;26.17;;;;;;;;;;5041095;28;20194;-66
2022/12/15 01:35:37;;;;;;;42.70;26.58;;;;;;;;;;5041201;28;20204;-66
2022/12/15 01:38:04;;;;;;;41.92;25.80;;;;;;;;;;5040785;28;20216;-66
2022/12/15 01:40:48;;;;;;;42.42;25.42;;;;;;;;;;5041554;28;20269;-66
2022/12/15 01:43:16;;;;;;;45.20;27.80;;;;;;;;;;5041177;28;20217;-66
2022/12/15 01:45:47;;;;;;;42.03;26.95;;;;;;;;;;5041296;28;20386;-66
2022/12/15 01:48:15;;;;;;;44.75;27.75;;;;;;;;;;5040991;28;20204;-66
2022/12/15 01:50:44;;;;;;;41.80;26.55;;;;;;;;;;5041123;28;20197;-66
2022/12/15 01:53:11;;;;;;;41.47;25.73;;;;;;;;;;5041124;28;20443;-66
2022/12/15 01:55:41;;;;;;;41.05;26.02;;;;;;;;;;5040950;28;20216;-66
2022/12/15 01:58:08;;;;;;;42.45;26.27;;;;;;;;;;5040875;28;20198;-66
2022/12/15 02:00:35;;;;;;;42.22;25.48;;;;;;;;;;5040953;28;20269;-66
2022/12/15 02:03:02;;;;;;;40.28;25.75;;;;;;;;;;5040537;28;20414;-66
2022/12/15 02:05:30;;;;;;;41.63;25.73;;;;;;;;;;5041323;28;20225;-66
2022/12/15 02:07:57;;;;;;;39.55;25.73;;;;;;;;;;5040020;28;20214;-66
2022/12/15 02:10:25;;;;;;;39.42;24.98;;;;;;;;;;5040847;28;20400;-66
2022/12/15 02:12:57;;;;;;;37.65;24.58;;;;;;;;;;5040878;28;20205;-66
2022/12/15 02:15:27;;;;;;;37.90;24.20;;;;;;;;;;5041272;28;20542;-66
2022/12/15 02:17:58;;;;;;;37.65;24.35;;;;;;;;;;5040346;28;20513;-66
2022/12/15 02:20:39;;;;;;;37.30;24.75;;;;;;;;;;5040138;28;20206;-66
2022/12/15 02:23:25;;;;;;;39.28;24.08;;;;;;;;;;5040338;28;20232;-66
2022/12/15 02:26:04;;;;;;;36.00;23.92;;;;;;;;;;5040467;28;20537;-66
2022/12/15 02:28:42;;;;;;;41.38;25.90;;;;;;;;;;5040433;28;20234;-66
2022/12/15 02:33:57;;;;;;;43.80;27.45;;;;;;;;;;5032854;28;20301;-66
2022/12/15 02:36:26;;;;;;;44.33;27.50;;;;;;;;;;5040287;28;20466;-66
2022/12/15 02:38:52;;;;;;;41.33;26.25;;;;;;;;;;5040181;28;20212;-66
2022/12/15 02:41:32;;;;;;;41.38;25.67;;;;;;;;;;5040123;28;20220;-66
2022/12/15 02:43:58;;;;;;;44.25;28.38;;;;;;;;;;5040087;28;20292;-66
2022/12/15 02:46:30;;;;;;;46.20;28.30;;;;;;;;;;5040286;28;20205;-66
2022/12/15 02:49:00;;;;;;;41.40;25.77;;;;;;;;;;5040010;28;20198;-66
2022/12/15 02:51:33;;;;;;;45.05;27.80;;;;;;;;;;5040066;28;20192;-66
2022/12/15 02:54:13;;;;;;;47.65;27.42;;;;;;;;;;5039850;28;20194;-66
2022/12/15 02:56:44;;;;;;;46.95;28.17;;;;;;;;;;5039991;28;20198;-66
2022/12/15 02:59:13;;;;;;;45.15;27.42;;;;;;;;;;5039822;28;20375;-66
2022/12/15 03:01:42;;;;;;;49.47;29.13;;;;;;;;;;5039918;28;20198;-66
2022/12/15 03:04:10;;;;;;;46.15;28.90;;;;;;;;;;5039723;28;20221;-66
2022/12/15 03:06:36;;;;;;;41.83;27.05;;;;;;;;;;5039825;28;20201;-66
2022/12/15 03:09:03;;;;;;;44.40;27.50;;;;;;;;;;5039467;28;20193;-66
2022/12/15 03:11:29;;;;;;;46.83;28.48;;;;;;;;;;5039897;28;20202;-66
2022/12/15 03:13:55;;;;;;;43.38;27.08;;;;;;;;;;5039980;28;20201;-66
2022/12/15 03:16:22;;;;;;;47.58;27.63;;;;;;;;;;5039886;28;20520;-66
2022/12/15 03:18:49;;;;;;;46.90;27.55;;;;;;;;;;5038935;28;20194;-66
2022/12/15 03:21:16;;;;;;;46.28;28.38;;;;;;;;;;5038753;28;20205;-66
2022/12/15 03:23:42;;;;;;;44.10;27.48;;;;;;;;;;5039242;28;20221;-66
2022/12/15 03:26:08;;;;;;;46.38;27.13;;;;;;;;;;5039591;28;20268;-66
2022/12/15 03:28:35;;;;;;;48.30;28.60;;;;;;;;;;5039336;27;20420;-66
2022/12/15 03:31:01;;;;;;;46.33;28.50;;;;;;;;;;5039756;28;20198;-66
2022/12/15 03:33:28;;;;;;;47.17;29.05;;;;;;;;;;5039223;28;20190;-66
2022/12/15 03:35:55;;;;;;;46.75;28.58;;;;;;;;;;5039421;28;20202;-66
2022/12/15 03:38:21;;;;;;;45.03;26.92;;;;;;;;;;5039584;28;20202;-66
2022/12/15 03:40:48;;;;;;;48.15;28.70;;;;;;;;;;5039352;28;20505;-66
2022/12/15 03:43:14;;;;;;;46.63;28.15;;;;;;;;;;5039457;28;20206;-66
2022/12/15 03:45:40;;;;;;;46.60;27.83;;;;;;;;;;5039434;28;20205;-66
2022/12/15 03:48:07;;;;;;;47.75;28.88;;;;;;;;;;5038786;28;20216;-66
2022/12/15 03:50:33;;;;;;;45.58;28.10;;;;;;;;;;5039043;28;20198;-66
2022/12/15 03:53:01;;;;;;;47.55;28.35;;;;;;;;;;5039270;28;20396;-66
2022/12/15 03:55:28;;;;;;;46.85;27.90;;;;;;;;;;5039243;28;20202;-66
2022/12/15 03:57:55;;;;;;;48.90;28.67;;;;;;;;;;5039080;28;20201;-66
2022/12/15 04:00:21;;;;;;;46.90;27.48;;;;;;;;;;5039162;28;20205;-66
2022/12/15 04:02:48;;;;;;;45.88;27.45;;;;;;;;;;5039004;28;20192;-66
2022/12/15 04:05:15;;;;;;;44.00;27.52;;;;;;;;;;5039161;28;20505;-66
2022/12/15 04:07:42;;;;;;;45.92;27.98;;;;;;;;;;5039367;28;20231;-66
2022/12/15 04:10:10;;;;;;;45.78;28.45;;;;;;;;;;5039042;28;20212;-66
2022/12/15 04:12:38;;;;;;;42.78;27.17;;;;;;;;;;5039033;28;20201;-66
2022/12/15 04:15:05;;;;;;;43.47;27.30;;;;;;;;;;5039198;28;20523;-66
2022/12/15 04:17:31;;;;;;;47.17;27.13;;;;;;;;;;5038799;28;20204;-66
2022/12/15 04:20:09;;;;;;;46.83;27.50;;;;;;;;;;5038632;28;20210;-66
2022/12/15 04:22:36;;;;;;;46.13;27.30;;;;;;;;;;5038868;28;20242;-66
2022/12/15 05:33:28;;;;;;;45.63;27.35;;;;;;;;;;5041233;28;20192;-65
2022/12/15 05:35:55;;;;;;;45.33;27.38;;;;;;;;;;5041459;28;20208;-66
2022/12/15 05:38:22;;;;;;;67.57;35.47;;;;;;;;;;5040827;28;20197;-66
2022/12/15 05:40:48;;;;;;;60.42;32.50;;;;;;;;;;5041117;28;20360;-66
2022/12/15 05:43:14;;;;;;;52.53;30.08;;;;;;;;;;5039942;28;20198;-66
2022/12/15 05:45:41;;;;;;;52.03;29.15;;;;;;;;;;5041325;28;20529;-66
2022/12/15 05:48:07;;;;;;;54.03;29.92;;;;;;;;;;5040865;28;20197;-66
2022/12/15 05:50:34;;;;;;;51.35;28.38;;;;;;;;;;5041098;28;20212;-66
2022/12/15 05:53:01;;;;;;;47.42;27.50;;;;;;;;;;5040858;28;20212;-66
2022/12/15 05:55:27;;;;;;;50.03;29.13;;;;;;;;;;5041069;28;20264;-66
2022/12/15 05:57:54;;;;;;;66.10;34.97;;;;;;;;;;5041106;28;20198;-66
2022/12/15 06:00:20;;;;;;;78.53;38.03;;;;;;;;;;5041084;28;20198;-66
2022/12/15 06:02:47;;;;;;;56.50;30.90;;;;;;;;;;5041163;28;20229;-66
2022/12/15 06:05:13;;;;;;;55.78;30.80;;;;;;;;;;5041107;28;20237;-66
2022/12/15 06:07:41;;;;;;;47.50;28.65;;;;;;;;;;5040773;28;20204;-66
2022/12/15 06:10:07;;;;;;;50.53;28.75;;;;;;;;;;5040502;28;20251;-66
2022/12/15 06:12:34;;;;;;;43.38;27.15;;;;;;;;;;5040750;28;20385;-66
2022/12/15 06:15:00;;;;;;;51.70;28.33;;;;;;;;;;5040541;28;20198;-66
2022/12/15 06:17:26;;;;;;;47.78;27.55;;;;;;;;;;5040238;28;20244;-66
2022/12/15 06:19:53;;;;;;;50.55;27.73;;;;;;;;;;5039914;28;20377;-66
2022/12/15 06:22:19;;;;;;;49.65;27.95;;;;;;;;;;5040262;28;20202;-66
2022/12/15 06:24:46;;;;;;;49.60;27.83;;;;;;;;;;5040034;28;20222;-65
2022/12/15 06:27:13;;;;;;;47.38;27.58;;;;;;;;;;5040133;28;20204;-65
2022/12/15 06:29:39;;;;;;;45.55;26.63;;;;;;;;;;5040234;28;20406;-65
2022/12/15 06:32:05;;;;;;;43.92;27.00;;;;;;;;;;5040244;28;20216;-65
2022/12/15 06:34:32;;;;;;;43.28;27.15;;;;;;;;;;5040121;28;20190;-65
2022/12/15 06:36:58;;;;;;;45.65;26.20;;;;;;;;;;5039976;28;20198;-65
2022/12/15 06:39:24;;;;;;;45.45;28.00;;;;;;;;;;5039948;28;20498;-65
2022/12/15 06:41:52;;;;;;;43.72;26.35;;;;;;;;;;5040214;28;20212;-65
2022/12/15 06:44:18;;;;;;;45.13;27.42;;;;;;;;;;5040247;28;20224;-65
2022/12/15 06:46:45;;;;;;;47.13;25.98;;;;;;;;;;5040339;28;20201;-65
2022/12/15 06:49:12;;;;;;;41.47;26.63;;;;;;;;;;5040003;28;20198;-67
2022/12/15 06:51:40;;;;;;;39.42;26.10;;;;;;;;;;5039849;28;20225;-66
2022/12/15 06:54:06;;;;;;;42.60;25.88;;;;;;;;;;5040048;28;20205;-66
2022/12/15 06:56:34;;;;;;;40.60;24.60;;;;;;;;;;5039972;28;20197;-66
2022/12/15 06:59:03;;;;;;;40.25;25.65;;;;;;;;;;5040073;28;20194;-66
2022/12/15 07:01:29;;;;;;;44.55;25.73;;;;;;;;;;5039941;28;20205;-66
2022/12/15 07:03:55;;;;;;;42.78;25.48;;;;;;;;;;5039964;28;20198;-66
2022/12/15 07:06:22;;;;;;;46.47;26.90;;;;;;;;;;5039831;28;20197;-66
2022/12/15 07:08:51;;;;;;;44.80;26.75;;;;;;;;;;5039493;28;20204;-66
2022/12/15 07:11:17;;;;;;;54.13;28.02;;;;;;;;;;5040067;28;20204;-66
2022/12/15 07:13:43;;;;;;;41.75;25.73;;;;;;;;;;5039821;28;20201;-66
2022/12/15 07:16:11;;;;;;;46.05;26.35;;;;;;;;;;5039966;28;20546;-66
2022/12/15 07:18:37;;;;;;;46.25;27.23;;;;;;;;;;5039493;28;20205;-66
2022/12/15 07:21:04;;;;;;;46.38;27.95;;;;;;;;;;5039647;28;20205;-66
2022/12/15 07:23:31;;;;;;;48.05;28.73;;;;;;;;;;5039763;28;20361;-66
2022/12/15 07:25:57;;;;;;;50.08;28.73;;;;;;;;;;5039730;28;20224;-66
2022/12/15 07:28:24;;;;;;;45.63;26.83;;;;;;;;;;5039277;28;20298;-66
2022/12/15 07:30:50;;;;;;;44.55;26.27;;;;;;;;;;5039399;28;20202;-66
2022/12/15 07:33:18;;;;;;;43.75;26.63;;;;;;;;;;5039198;28;20198;-66
2022/12/15 07:35:52;;;;;;;46.30;27.00;;;;;;;;;;5039408;28;20200;-66
2022/12/15 07:38:18;;;;;;;43.60;27.27;;;;;;;;;;5039483;28;20218;-66
2022/12/15 07:40:45;;;;;;;45.63;27.35;;;;;;;;;;5039397;28;20198;-66
2022/12/15 07:43:11;;;;;;;43.67;26.60;;;;;;;;;;5039542;28;20428;-66
2022/12/15 07:45:37;;;;;;;45.72;27.08;;;;;;;;;;5039132;28;20224;-66
2022/12/15 07:48:04;;;;;;;42.97;25.90;;;;;;;;;;5039358;28;20198;-66
2022/12/15 07:50:31;;;;;;;39.03;24.73;;;;;;;;;;5039594;28;20372;-66
2022/12/15 07:52:58;;;;;;;45.58;26.85;;;;;;;;;;5039288;28;20197;-66
2022/12/15 07:55:24;;;;;;;45.22;28.55;;;;;;;;;;5039428;28;20193;-66
2022/12/15 07:57:50;;;;;;;44.80;26.02;;;;;;;;;;5039149;28;20430;-66
2022/12/15 08:00:18;;;;;;;47.78;27.58;;;;;;;;;;5039026;28;20200;-66
2022/12/15 08:02:44;;;;;;;44.90;26.92;;;;;;;;;;5039686;28;20243;-66
2022/12/15 08:05:10;;;;;;;48.25;26.58;;;;;;;;;;5039166;28;20225;-66
2022/12/15 08:07:38;;;;;;;53.05;28.13;;;;;;;;;;5042555;28;20205;-66
2022/12/15 08:10:05;;;;;;;46.35;28.05;;;;;;;;;;5042693;28;20394;-66
2022/12/15 08:12:31;;;;;;;46.70;26.85;;;;;;;;;;5042774;28;20204;-66
2022/12/15 08:14:57;;;;;;;46.17;27.08;;;;;;;;;;5042546;28;20208;-66
2022/12/15 08:17:23;;;;;;;51.38;28.10;;;;;;;;;;5042914;28;20396;-66
2022/12/15 08:19:50;;;;;;;50.90;28.10;;;;;;;;;;5042800;28;20205;-66
2022/12/15 08:22:16;;;;;;;44.50;26.85;;;;;;;;;;5043037;28;20205;-66
2022/12/15 08:24:44;;;;;;;46.20;27.60;;;;;;;;;;5042422;28;20213;-66
2022/12/15 08:27:10;;;;;;;52.25;27.80;;;;;;;;;;5042559;28;20501;-66
2022/12/15 08:29:36;;;;;;;48.75;29.05;;;;;;;;;;5042293;27;20222;-66
2022/12/15 08:32:03;;;;;;;47.92;27.92;;;;;;;;;;5042519;28;20201;-66
2022/12/15 08:34:29;;;;;;;48.63;28.58;;;;;;;;;;5042615;28;20220;-66
2022/12/15 08:36:55;;;;;;;43.75;26.67;;;;;;;;;;5042091;28;20197;-66
2022/12/15 08:39:22;;;;;;;43.72;27.00;;;;;;;;;;5042122;28;20216;-66
2022/12/15 08:41:49;;;;;;;46.22;26.42;;;;;;;;;;5042666;28;20407;-66
2022/12/15 08:44:16;;;;;;;46.40;28.00;;;;;;;;;;5041697;28;20266;-66
2022/12/15 08:46:42;;;;;;;50.03;27.35;;;;;;;;;;5042170;28;20407;-66
2022/12/15 08:49:09;;;;;;;47.45;26.55;;;;;;;;;;5042031;28;20197;-66
2022/12/15 08:51:36;;;;;;;49.28;27.35;;;;;;;;;;5042497;28;20537;-66
2022/12/15 08:54:02;;;;;;;50.33;28.35;;;;;;;;;;5042193;28;20198;-66
2022/12/15 08:56:29;;;;;;;41.15;26.02;;;;;;;;;;5042061;28;20193;-66
2022/12/15 08:58:57;;;;;;;44.58;27.30;;;;;;;;;;5041939;28;20378;-66
2022/12/15 09:01:24;;;;;;;51.65;28.58;;;;;;;;;;5041908;28;20272;-66
2022/12/15 09:03:51;;;;;;;50.65;29.48;;;;;;;;;;5042004;28;20389;-66
2022/12/15 09:06:18;;;;;;;47.42;27.58;;;;;;;;;;5042060;28;20536;-66
2022/12/15 09:08:45;;;;;;;51.65;29.33;;;;;;;;;;5041737;28;20198;-66
2022/12/15 09:11:11;;;;;;;51.30;27.70;;;;;;;;;;5041638;28;20198;-66
2022/12/15 09:13:38;;;;;;;46.65;28.00;;;;;;;;;;5042116;28;20387;-66
2022/12/15 09:16:07;;;;;;;47.75;28.23;;;;;;;;;;5041885;28;20194;-66
2022/12/15 09:18:34;;;;;;;48.78;27.45;;;;;;;;;;5041712;28;20202;-66
2022/12/15 09:21:01;;;;;;;47.38;27.77;;;;;;;;;;5041828;28;20206;-66
2022/12/15 09:23:28;;;;;;;45.72;26.88;;;;;;;;;;5041623;28;20197;-66
2022/12/15 09:26:00;;;;;;;43.17;26.05;;;;;;;;;;5041503;28;20456;-66
2022/12/15 09:28:26;;;;;;;41.70;26.08;;;;;;;;;;5041425;28;20218;-66
2022/12/15 09:30:52;;;;;;;44.17;26.52;;;;;;;;;;5041673;28;20377;-66
2022/12/15 09:33:20;;;;;;;42.28;25.48;;;;;;;;;;5041895;28;20209;-66
2022/12/15 09:35:49;;;;;;;42.47;25.92;;;;;;;;;;5041693;28;20364;-66
2022/12/15 09:38:15;;;;;;;39.47;26.15;;;;;;;;;;5040874;28;20254;-66
2022/12/15 09:40:42;;;;;;;39.83;24.38;;;;;;;;;;5041732;28;20210;-66
2022/12/15 09:43:12;;;;;;;38.75;24.98;;;;;;;;;;5041492;28;20531;-66
2022/12/15 09:45:42;;;;;;;42.22;26.02;;;;;;;;;;5041561;28;20214;-66
2022/12/15 09:48:10;;;;;;;41.55;25.83;;;;;;;;;;5040874;28;20235;-66
2022/12/15 09:50:39;;;;;;;44.97;26.27;;;;;;;;;;5041277;28;20268;-66
2022/12/15 09:53:09;;;;;;;42.08;26.10;;;;;;;;;;5041200;28;20210;-66
2022/12/15 09:55:35;;;;;;;44.35;26.95;;;;;;;;;;5041467;28;20194;-66
2022/12/15 09:58:05;;;;;;;42.65;24.92;;;;;;;;;;5041048;28;20206;-66
2022/12/15 10:00:34;;;;;;;41.47;26.10;;;;;;;;;;5041052;28;20280;-66
2022/12/15 10:03:10;;;;;;;40.05;24.17;;;;;;;;;;5041010;28;20198;-66
2022/12/15 10:05:42;;;;;;;36.97;22.40;;;;;;;;;;5040915;28;20420;-66
2022/12/15 10:08:09;;;;;;;37.75;22.10;;;;;;;;;;5040569;28;20198;-66
2022/12/15 10:10:41;;;;;;;35.15;22.73;;;;;;;;;;5040968;28;20428;-66
2022/12/15 10:13:10;;;;;;;40.40;23.42;;;;;;;;;;5040804;28;20557;-66
2022/12/15 10:15:41;;;;;;;34.38;22.05;;;;;;;;;;5040540;28;20194;-66
2022/12/15 10:18:15;;;;;;;36.65;23.10;;;;;;;;;;5040230;28;20204;-66
2022/12/15 10:20:43;;;;;;;34.90;22.10;;;;;;;;;;5040697;28;20220;-66
2022/12/15 10:23:11;;;;;;;35.40;22.63;;;;;;;;;;5041048;28;20206;-66
2022/12/15 10:25:38;;;;;;;36.03;21.83;;;;;;;;;;5040874;28;20213;-66
2022/12/15 10:28:10;;;;;;;36.70;22.67;;;;;;;;;;5040032;28;20218;-66
2022/12/15 10:30:38;;;;;;;37.85;23.73;;;;;;;;;;5040869;28;20265;-66
2022/12/15 10:33:11;;;;;;;37.00;22.88;;;;;;;;;;5040827;28;20219;-66
2022/12/15 10:35:38;;;;;;;32.72;21.65;;;;;;;;;;5040575;28;20193;-66
2022/12/15 10:38:07;;;;;;;34.65;22.05;;;;;;;;;;5040303;28;20205;-66
2022/12/15 10:40:45;;;;;;;38.22;23.63;;;;;;;;;;5040291;28;20397;-66
2022/12/15 10:43:13;;;;;;;35.10;23.20;;;;;;;;;;5040455;28;20204;-66
2022/12/15 10:45:39;;;;;;;34.92;22.15;;;;;;;;;;5040202;28;20213;-66
2022/12/15 10:48:06;;;;;;;35.08;22.17;;;;;;;;;;5040064;28;20198;-66
2022/12/15 10:50:32;;;;;;;39.88;23.75;;;;;;;;;;5040501;28;20198;-66
2022/12/15 10:52:59;;;;;;;36.15;22.50;;;;;;;;;;5040274;28;20222;-66
2022/12/15 10:55:35;;;;;;;35.38;22.30;;;;;;;;;;5040278;28;20202;-66
2022/12/15 10:58:03;;;;;;;36.47;22.55;;;;;;;;;;5040225;28;20206;-66
2022/12/15 11:00:30;;;;;;;36.22;22.80;;;;;;;;;;5040303;28;20198;-66
2022/12/15 11:02:56;;;;;;;33.92;21.92;;;;;;;;;;5040156;28;20198;-66
2022/12/15 11:05:23;;;;;;;37.50;23.63;;;;;;;;;;5039674;28;20224;-66
2022/12/15 11:07:50;;;;;;;34.97;22.17;;;;;;;;;;5040131;28;20202;-66
2022/12/15 11:10:19;;;;;;;35.92;22.40;;;;;;;;;;5039883;28;20197;-66
2022/12/15 11:12:53;;;;;;;35.83;23.10;;;;;;;;;;5040005;28;20520;-66
2022/12/15 11:15:46;;;;;;;36.17;22.67;;;;;;;;;;5039877;28;20205;-66
2022/12/15 11:18:21;;;;;;;35.78;22.67;;;;;;;;;;5063050;28;20198;-66
2022/12/15 11:20:48;;;;;;;37.22;22.17;;;;;;;;;;5039738;28;20414;-66
2022/12/15 11:23:18;;;;;;;35.80;22.05;;;;;;;;;;5039482;27;20464;-66
2022/12/15 11:25:46;;;;;;;36.40;23.02;;;;;;;;;;5039694;28;20222;-66
2022/12/15 11:28:16;;;;;;;34.33;21.38;;;;;;;;;;5039109;28;20218;-66
2022/12/15 11:30:45;;;;;;;36.38;22.77;;;;;;;;;;5039193;28;20434;-66
2022/12/15 11:33:11;;;;;;;41.35;24.15;;;;;;;;;;5039430;28;20231;-66
2022/12/15 11:35:47;;;;;;;40.53;22.33;;;;;;;;;;5039367;28;20493;-66
2022/12/15 11:38:17;;;;;;;35.67;23.05;;;;;;;;;;5038919;28;20520;-66
2022/12/15 11:40:43;;;;;;;35.20;22.42;;;;;;;;;;5038004;28;20201;-66
2022/12/15 11:43:21;;;;;;;36.53;22.50;;;;;;;;;;5038643;28;20197;-66
2022/12/15 11:45:54;;;;;;;32.92;20.83;;;;;;;;;;5039147;28;20489;-66
2022/12/15 11:48:21;;;;;;;35.28;22.70;;;;;;;;;;5038731;28;20202;-66
2022/12/15 11:50:55;;;;;;;31.15;20.23;;;;;;;;;;5039080;28;20198;-66
2022/12/15 11:53:36;;;;;;;32.70;20.95;;;;;;;;;;5038893;28;20389;-66
2022/12/15 11:56:07;;;;;;;33.45;20.20;;;;;;;;;;5038831;28;20193;-66
2022/12/15 11:58:45;;;;;;;32.22;20.25;;;;;;;;;;5038715;28;20461;-66
2022/12/15 12:01:18;;;;;;;29.33;19.35;;;;;;;;;;5038889;28;20262;-66
2022/12/15 12:03:48;;;;;;;28.95;19.75;;;;;;;;;;5039399;28;20312;-66
2022/12/15 12:06:16;;;;;;;29.92;19.67;;;;;;;;;;5039084;28;20372;-66
2022/12/15 12:09:00;;;;;;;31.70;21.02;;;;;;;;;;5038849;28;20202;-66
2022/12/15 12:11:28;;;;;;;33.25;19.13;;;;;;;;;;5039255;28;20202;-66
2022/12/15 12:14:04;;;;;;;28.88;19.15;;;;;;;;;;5039151;28;20205;-66
2022/12/15 12:16:34;;;;;;;30.10;19.20;;;;;;;;;;5038549;28;20229;-66
2022/12/15 12:19:02;;;;;;;32.58;20.10;;;;;;;;;;5038681;28;20224;-66
2022/12/15 12:21:29;;;;;;;32.40;20.83;;;;;;;;;;5038590;28;20206;-66
2022/12/15 12:23:58;;;;;;;33.58;21.13;;;;;;;;;;5038801;28;20244;-66
2022/12/15 12:26:29;;;;;;;34.35;20.83;;;;;;;;;;5038598;28;20218;-66
2022/12/15 12:28:58;;;;;;;32.90;20.88;;;;;;;;;;5038373;28;20454;-66
2022/12/15 12:31:29;;;;;;;31.70;19.63;;;;;;;;;;5038755;28;20222;-66
2022/12/15 12:34:01;;;;;;;33.03;20.95;;;;;;;;;;5038654;28;20501;-66
2022/12/15 12:36:27;;;;;;;32.03;20.30;;;;;;;;;;5038536;28;20201;-66
2022/12/15 12:38:55;;;;;;;31.08;20.33;;;;;;;;;;5038452;28;20205;-66
2022/12/15 12:41:25;;;;;;;33.53;19.63;;;;;;;;;;5038543;28;20198;-66
2022/12/15 12:43:52;;;;;;;30.90;19.38;;;;;;;;;;5038468;28;20205;-66
2022/12/15 12:46:20;;;;;;;35.42;20.13;;;;;;;;;;5038485;28;20222;-66
2022/12/15 12:48:49;;;;;;;27.63;18.75;;;;;;;;;;5038580;28;20239;-66
2022/12/15 12:51:19;;;;;;;31.92;20.45;;;;;;;;;;5038471;28;20235;-66
2022/12/15 12:53:46;;;;;;;34.05;21.20;;;;;;;;;;5041953;28;20198;-66
2022/12/15 12:56:36;;;;;;;32.42;19.75;;;;;;;;;;5041599;28;20201;-66
2022/12/15 12:59:06;;;;;;;31.65;19.92;;;;;;;;;;5041610;28;20396;-66
2022/12/15 13:01:34;;;;;;;34.25;20.20;;;;;;;;;;5042021;28;20202;-66
2022/12/15 13:04:10;;;;;;;32.20;20.15;;;;;;;;;;5041795;28;20288;-66
2022/12/15 13:06:55;;;;;;;36.33;21.60;;;;;;;;;;5041248;28;20457;-66
2022/12/15 13:09:22;;;;;;;34.83;20.05;;;;;;;;;;5041382;27;20364;-66
2022/12/15 13:11:57;;;;;;;34.13;21.17;;;;;;;;;;5041734;28;20198;-66
2022/12/15 13:14:41;;;;;;;32.58;19.90;;;;;;;;;;5041427;28;20493;-66
2022/12/15 13:17:12;;;;;;;30.73;19.95;;;;;;;;;;5041293;28;20509;-66
2022/12/15 13:19:56;;;;;;;31.00;19.58;;;;;;;;;;5041053;28;20205;-66
2022/12/15 13:22:27;;;;;;;37.13;20.98;;;;;;;;;;5040996;28;20201;-66
2022/12/15 13:24:55;;;;;;;30.83;19.92;;;;;;;;;;5041200;28;20198;-66
2022/12/15 13:27:22;;;;;;;31.73;19.15;;;;;;;;;;5041082;28;20533;-66
2022/12/15 13:29:56;;;;;;;31.80;19.55;;;;;;;;;;5041156;28;20198;-66
2022/12/15 13:32:27;;;;;;;31.70;19.42;;;;;;;;;;5041167;28;20198;-66
2022/12/15 13:34:54;;;;;;;29.30;19.00;;;;;;;;;;5040976;28;20197;-66
2022/12/15 13:37:35;;;;;;;32.58;20.00;;;;;;;;;;5041012;28;20201;-66
2022/12/15 13:40:24;;;;;;;33.95;20.60;;;;;;;;;;5040408;28;20208;-66
2022/12/15 13:42:56;;;;;;;30.10;19.70;;;;;;;;;;5041094;28;20198;-66
2022/12/15 13:45:31;;;;;;;34.80;20.25;;;;;;;;;;5041170;28;20397;-66
2022/12/15 13:47:58;;;;;;;31.77;20.23;;;;;;;;;;5040649;28;20221;-66
2022/12/15 13:50:30;;;;;;;33.53;19.77;;;;;;;;;;5040774;28;20519;-66
2022/12/15 13:52:57;;;;;;;32.60;20.67;;;;;;;;;;5040920;28;20205;-66
2022/12/15 13:55:28;;;;;;;32.15;21.00;;;;;;;;;;5040695;28;20387;-66
2022/12/15 13:57:56;;;;;;;31.35;20.05;;;;;;;;;;5041052;28;20194;-66
2022/12/15 14:00:23;;;;;;;32.85;20.13;;;;;;;;;;5040610;28;20204;-66
2022/12/15 14:02:49;;;;;;;31.83;20.17;;;;;;;;;;5040180;28;20202;-66
2022/12/15 14:05:18;;;;;;;35.03;20.88;;;;;;;;;;5040103;28;20458;-66
2022/12/15 14:07:46;;;;;;;32.38;20.17;;;;;;;;;;5040654;28;20229;-66
2022/12/15 14:10:17;;;;;;;34.30;20.70;;;;;;;;;;5040623;28;20205;-66
2022/12/15 14:12:45;;;;;;;32.95;20.05;;;;;;;;;;5040706;28;20387;-66
2022/12/15 14:15:12;;;;;;;32.42;20.73;;;;;;;;;;5040355;28;20212;-66
2022/12/15 14:17:38;;;;;;;31.73;19.83;;;;;;;;;;5040609;28;20261;-66
2022/12/15 14:20:10;;;;;;;34.50;19.85;;;;;;;;;;5040206;28;20206;-66
2022/12/15 14:22:40;;;;;;;30.77;19.50;;;;;;;;;;5040439;28;20262;-66
2022/12/15 14:25:12;;;;;;;31.73;19.92;;;;;;;;;;5040487;28;20205;-66
2022/12/15 14:27:39;;;;;;;29.75;19.63;;;;;;;;;;5040343;28;20255;-66
2022/12/15 14:30:23;;;;;;;29.75;19.77;;;;;;;;;;5039814;28;20213;-66
2022/12/15 14:32:51;;;;;;;32.42;19.50;;;;;;;;;;5040219;28;20527;-66
2022/12/15 14:35:21;;;;;;;31.67;19.45;;;;;;;;;;5040120;28;20205;-66
2022/12/15 14:37:47;;;;;;;32.78;20.00;;;;;;;;;;5039993;28;20198;-66
2022/12/15 14:40:14;;;;;;;31.17;19.05;;;;;;;;;;5039949;28;20198;-66
2022/12/15 14:42:41;;;;;;;30.17;18.58;;;;;;;;;;5039878;28;20210;-66
2022/12/15 14:45:13;;;;;;;35.20;20.35;;;;;;;;;;5040321;28;20198;-66
2022/12/15 14:47:50;;;;;;;30.63;19.60;;;;;;;;;;5039928;28;20232;-66
2022/12/15 14:50:17;;;;;;;30.17;18.73;;;;;;;;;;5039824;28;20205;-66
2022/12/15 14:52:44;;;;;;;30.42;18.83;;;;;;;;;;5039724;28;20206;-66
2022/12/15 14:55:26;;;;;;;35.20;20.00;;;;;;;;;;5039746;28;20205;-66
2022/12/15 14:57:52;;;;;;;32.78;19.50;;;;;;;;;;5039768;28;20194;-66
2022/12/15 15:00:23;;;;;;;31.38;19.58;;;;;;;;;;5039693;28;20205;-67
2022/12/15 15:03:08;;;;;;;30.08;19.23;;;;;;;;;;5039716;28;20198;-66
2022/12/15 15:05:34;;;;;;;34.58;21.80;;;;;;;;;;5039641;28;20516;-66
2022/12/15 15:08:00;;;;;;;37.20;21.45;;;;;;;;;;5039427;28;20218;-66
2022/12/15 15:10:28;;;;;;;33.10;21.40;;;;;;;;;;5039435;28;20198;-66
2022/12/15 15:12:55;;;;;;;36.65;22.30;;;;;;;;;;5039452;27;20213;-66
2022/12/15 15:15:24;;;;;;;36.15;21.00;;;;;;;;;;5039166;28;20206;-66
2022/12/15 15:17:52;;;;;;;37.05;21.85;;;;;;;;;;5039379;28;20399;-66
2022/12/15 15:20:20;;;;;;;40.50;23.25;;;;;;;;;;5039215;28;20277;-66
2022/12/15 15:22:47;;;;;;;35.22;21.85;;;;;;;;;;5039449;28;20202;-66
2022/12/15 15:25:35;;;;;;;38.63;22.98;;;;;;;;;;5039355;28;20409;-66
2022/12/15 15:28:02;;;;;;;37.40;22.15;;;;;;;;;;5041885;28;20579;-66
2022/12/15 15:30:28;;;;;;;39.85;24.10;;;;;;;;;;5039335;27;20205;-66
2022/12/15 15:32:57;;;;;;;41.50;23.33;;;;;;;;;;5039441;28;20205;-66
2022/12/15 15:35:24;;;;;;;37.55;22.58;;;;;;;;;;5039292;28;20198;-66
2022/12/15 15:37:51;;;;;;;39.20;22.98;;;;;;;;;;5039249;28;20415;-66
2022/12/15 15:40:17;;;;;;;38.75;23.60;;;;;;;;;;5039143;28;20635;-66
2022/12/15 15:42:44;;;;;;;37.53;23.27;;;;;;;;;;5039559;28;20482;-66
2022/12/15 15:45:12;;;;;;;36.83;22.02;;;;;;;;;;5039263;28;20387;-66
2022/12/15 15:47:38;;;;;;;38.58;23.73;;;;;;;;;;5039081;28;20483;-66
2022/12/15 15:50:11;;;;;;;35.20;21.63;;;;;;;;;;5039117;28;20397;-66
2022/12/15 15:52:37;;;;;;;38.53;22.27;;;;;;;;;;5039207;28;20221;-66
2022/12/15 15:55:04;;;;;;;37.83;21.85;;;;;;;;;;5039342;28;20497;-66
2022/12/15 15:57:30;;;;;;;35.13;21.75;;;;;;;;;;5038966;28;20217;-66
2022/12/15 15:59:57;;;;;;;36.90;20.90;;;;;;;;;;5039323;28;20197;-66
2022/12/15 16:02:23;;;;;;;34.80;20.73;;;;;;;;;;5039086;28;20204;-66
2022/12/15 16:04:49;;;;;;;33.13;20.75;;;;;;;;;;5039057;28;20400;-66
2022/12/15 16:07:20;;;;;;;34.10;21.00;;;;;;;;;;5038945;28;20241;-66
2022/12/15 16:09:46;;;;;;;29.60;19.15;;;;;;;;;;5039318;28;20221;-66
2022/12/15 16:12:20;;;;;;;34.67;20.65;;;;;;;;;;5038979;28;20216;-66
2022/12/15 16:14:46;;;;;;;30.55;19.17;;;;;;;;;;5039455;28;20478;-65
2022/12/15 16:17:12;;;;;;;34.40;21.00;;;;;;;;;;5039165;28;20374;-65
2022/12/15 16:19:39;;;;;;;32.40;19.75;;;;;;;;;;5038536;28;20220;-65
2022/12/15 16:22:05;;;;;;;32.88;20.70;;;;;;;;;;5038778;28;20206;-65
2022/12/15 16:24:32;;;;;;;32.50;19.25;;;;;;;;;;5038859;28;20538;-65
2022/12/15 16:26:59;;;;;;;33.00;18.38;;;;;;;;;;5040036;28;20260;-65
2022/12/15 16:29:25;;;;;;;31.20;19.58;;;;;;;;;;5041877;28;20224;-65
2022/12/15 16:31:51;;;;;;;33.05;19.63;;;;;;;;;;5042076;28;20523;-65
2022/12/15 16:34:18;;;;;;;29.67;18.40;;;;;;;;;;5042234;28;20269;-65
2022/12/15 16:36:44;;;;;;;31.35;18.88;;;;;;;;;;5042181;28;20206;-65
2022/12/15 16:39:22;;;;;;;29.42;18.80;;;;;;;;;;5041812;28;20197;-65
2022/12/15 16:41:50;;;;;;;33.70;18.48;;;;;;;;;;5042317;27;20198;-65
2022/12/15 16:44:17;;;;;;;28.67;18.25;;;;;;;;;;5042259;28;20432;-65
2022/12/15 16:46:44;;;;;;;31.77;19.50;;;;;;;;;;5042120;28;20240;-65